Terminal Aerodrome Forecast
Issued by NWS Pocatello, ID

Home | Current Version | Previous Version | Text Only | Print | Product List | Glossary On
Versions: 1 2 3 4 5 6 7 8 9 10 11 12 13 14 15 16 17 18 19 20 21 22 23 24 25 26 27 28 29 30
532
FTUS45 KPIH 041120
TAFPIH
TAF
KPIH 041120Z 0412/0512 20015KT P6SM SCT045 BKN080
     FM041800 20020G30KT P6SM VCSH BKN045 OVC060
     FM042300 21024G34KT 5SM -RASN SCT015 OVC025
     FM050300 23025G35KT 3SM -SN BLSN SCT006 OVC015
     FM050800 24025G35KT P6SM VCSH SCT015 BKN045=

USA.gov is the U.S. government's official web portal to all federal, state and local government web resources and services.